Vindeby, Denmark
Current Conditions -  °F | °C
As of 2:20 AM on Monday 24 Nov 2014 (Local Time) from ETGG Reporting Station
Broken Clouds Broken Clouds  
Wind Chill: 50°   Ceiling: 1500
Heat Index: 50°   Visibility: 6mi
Dew Point: 45°   Wind: 14mph
Humidity: 82%   Direction: 180°S
Pressure: 29.85"   Gusts: NA
Location:  55.04°N, 10.61°E
Report Text: ETGG 240120Z 18012KT 9999 BKN015 10/07 Q1011 WHT
Loading
Personal Weather Stations






























Interactive Weather Map New forecast layout! Learn more

10-Day Weather Forecast

Advertisements
Track Severe Weather on mobile